Terminal Aerodrome Forecast
Issued by NWS

Home | Current Version | Previous Version | Text Only | Print | Product List | Glossary Off
Versions: 1 2 3 4 5 6 7 8 9 10 11 12 13

000
FTUS43 KTOP 271100
TAFMHK
TAF
KMHK 271135Z 2712/2812 16006KT P6SM SKC
     FM271500 18012KT P6SM FEW050
     FM280000 15005KT P6SM FEW050=

USA.gov is the U.S. government's official web portal to all federal, state and local government web resources and services.